1987 BRET (1987230N15340)


On this page: IBTrACS data - Map and Plots - Positions - Intensities - Original source data

Summary

Start Aug 18
End Aug 24
Basin NA
LMI 45 kt
Sources hurdat_atl
atcf
In WMO? Yes
Previous storm 1987 JOVA (EP)
Previous in basin 1987 MISSING (NA)
Concurrent storms 1987 CARY (WP)
1987 ARLENE (NA)
1987 JOVA (EP)
1987 BRET (NA)
1987 MISSING (WP)
1987 DINAH (WP)
1987 ED1 (WP)
Next in basin Missing
Next storm 1987 MISSING (WP)

top of page IBTrACS Data: File Access

top of page HURSAT Data: File Access

Image of storm

top of page Plots:

Map of storm track will not appear if FTP is down
Time series of cyclone Maximum Sustained Wind will not appear if FTP is down
Time series of cyclone Minimum Central Pressure will not appear if FTP is down

top of page Track Data:Position

hurdat_atl atcf
Date Lat Lon Lat Lon
1987-08-18 00:00:00 14.8 -20.0 14.8 -20.0
1987-08-18 06:00:00 14.9 -22.0 14.9 -22.0
1987-08-18 12:00:00 15.0 -24.0 15.0 -24.0
1987-08-18 18:00:00 15.1 -26.0 15.1 -26.0
1987-08-19 00:00:00 15.2 -27.9 15.2 -27.9
1987-08-19 06:00:00 15.3 -29.5 15.3 -29.5
1987-08-19 12:00:00 15.4 -31.0 15.4 -31.0
1987-08-19 18:00:00 15.5 -32.4 15.5 -32.4
1987-08-20 00:00:00 15.6 -34.0 15.6 -34.0
1987-08-20 06:00:00 15.7 -35.5 15.7 -35.5
1987-08-20 12:00:00 15.8 -37.0 15.8 -37.0
1987-08-20 18:00:00 15.9 -38.4 15.9 -38.4
1987-08-21 00:00:00 16.0 -39.8 16.0 -39.8
1987-08-21 06:00:00 16.4 -41.0 16.4 -41.0
1987-08-21 12:00:00 16.9 -42.5 16.9 -42.5
1987-08-21 18:00:00 17.1 -43.9 17.1 -43.9
1987-08-22 00:00:00 17.5 -45.0 17.5 -45.0
1987-08-22 06:00:00 17.8 -46.1 17.8 -46.1
1987-08-22 12:00:00 18.1 -47.2 18.1 -47.2
1987-08-22 18:00:00 18.4 -48.3 18.4 -48.3
1987-08-23 00:00:00 19.0 -49.4 19.0 -49.4
1987-08-23 06:00:00 19.8 -50.3 19.8 -50.3
1987-08-23 12:00:00 20.5 -51.3 20.5 -51.3
1987-08-23 18:00:00 21.4 -52.5 21.4 -52.5
1987-08-24 00:00:00 22.2 -53.8 22.2 -53.8
hurdat_atl atcf
1987-08-24 06:00:00 23.8 -54.5 23.8 -54.5

top of pageTrack Data:Intensity

hurdat_atl atcf
Date Wind Pres Wind Pres
1987-08-18 00:00:00 25. 1011. 25. 1011.
1987-08-18 06:00:00 25. 1010. 25. 1010.
1987-08-18 12:00:00 30. 1008. 30. 1008.
1987-08-18 18:00:00 35. 1004. 35. 1004.
1987-08-19 00:00:00 35. 1004. 35. 1004.
1987-08-19 06:00:00 35. 1004. 35. 1004.
1987-08-19 12:00:00 35. 1004. 35. 1004.
1987-08-19 18:00:00 40. 1002. 40. 1002.
1987-08-20 00:00:00 40. 1002. 40. 1002.
1987-08-20 06:00:00 45. 1000. 45. 1000.
1987-08-20 12:00:00 45. 1000. 45. 1000.
1987-08-20 18:00:00 45. 1000. 45. 1000.
1987-08-21 00:00:00 40. 1002. 40. 1002.
1987-08-21 06:00:00 40. 1002. 40. 1002.
1987-08-21 12:00:00 35. 1005. 35. 1005.
1987-08-21 18:00:00 35. 1005. 35. 1005.
1987-08-22 00:00:00 35. 1005. 35. 1005.
1987-08-22 06:00:00 35. 1005. 35. 1005.
1987-08-22 12:00:00 35. 1007. 35. 1007.
1987-08-22 18:00:00 30. 1009. 30. 1009.
1987-08-23 00:00:00 30. 1009. 30. 1009.
1987-08-23 06:00:00 30. 1009. 30. 1009.
1987-08-23 12:00:00 25. 1011. 25. 1011.
1987-08-23 18:00:00 25. 1011. 25. 1011.
1987-08-24 00:00:00 25. 1011. 25. 1011.
hurdat_atl atcf
1987-08-24 06:00:00 25. 1011. 25. 1011.

top of page Links to source data

Source Source file Format
hurdat_atl tracks1851to2011.txt:1139:BRET HURDAT
atcf bal051987.dat ATCF